Time;durP1;ratioP1;P1;durP2;ratioP2;P2;SDS_P1;SDS_P2;PMS_P1;PMS_P2;Temp;Humidity;BMP_temperature;BMP_pressure;BME280_temperature;BME280_humidity;BME280_pressure;Samples;Min_cycle;Max_cycle;Signal;HPM_P1;HPM_P2
2021/07/07 00:01:14;;;;;;;19.17;8.23;;;20.50;60.60;;;;;;4995224;28;20629;-80
2021/07/07 00:03:40;;;;;;;18.13;8.93;;;20.40;60.00;;;;;;4996081;28;20074;-78
2021/07/07 00:06:06;;;;;;;12.80;8.18;;;20.40;60.40;;;;;;4995643;28;20026;-79
2021/07/07 00:08:32;;;;;;;16.30;9.38;;;20.40;60.50;;;;;;4995603;28;20026;-78
2021/07/07 00:11:02;;;;;;;14.05;8.65;;;20.40;60.80;;;;;;4992579;28;20041;-79
2021/07/07 00:13:28;;;;;;;14.20;8.50;;;20.30;60.90;;;;;;4993827;28;20045;-78
2021/07/07 00:15:54;;;;;;;19.88;8.88;;;20.30;61.20;;;;;;4993973;28;20033;-77
2021/07/07 00:18:20;;;;;;;15.57;9.07;;;20.30;61.50;;;;;;4993720;28;20381;-79
2021/07/07 00:20:54;;;;;;;15.30;8.82;;;20.20;61.80;;;;;;4993481;28;20102;-79
2021/07/07 00:23:20;;;;;;;15.70;7.97;;;20.20;61.50;;;;;;4993512;28;20400;-79
2021/07/07 00:25:46;;;;;;;19.60;8.40;;;20.20;61.90;;;;;;4993612;28;20108;-77
2021/07/07 00:28:12;;;;;;;13.18;8.20;;;20.20;61.90;;;;;;4993334;28;20280;-78
2021/07/07 00:30:38;;;;;;;12.90;8.68;;;20.20;61.90;;;;;;4993237;28;20037;-79
2021/07/07 00:33:04;;;;;;;14.15;8.38;;;20.20;61.90;;;;;;4993632;28;20026;-78
2021/07/07 00:35:30;;;;;;;15.43;8.43;;;20.20;61.40;;;;;;4993535;28;20061;-78
2021/07/07 00:37:56;;;;;;;19.55;8.70;;;20.20;62.00;;;;;;4993557;28;20105;-78
2021/07/07 00:40:22;;;;;;;18.05;10.77;;;20.20;62.60;;;;;;4992013;28;20534;-79
2021/07/07 00:42:48;;;;;;;20.70;13.30;;;20.20;62.00;;;;;;4992217;28;20034;-79
2021/07/07 00:45:15;;;;;;;17.08;9.50;;;20.10;62.40;;;;;;4993247;28;20026;-79
2021/07/07 00:47:43;;;;;;;22.70;10.07;;;20.10;62.70;;;;;;4993599;28;20476;-77
2021/07/07 00:50:09;;;;;;;13.68;9.57;;;20.10;62.80;;;;;;4991871;28;20030;-79
2021/07/07 00:52:35;;;;;;;12.57;9.23;;;20.00;62.90;;;;;;4993211;28;20030;-80
2021/07/07 00:55:10;;;;;;;16.33;8.70;;;20.00;62.90;;;;;;4993233;28;20464;-79
2021/07/07 00:57:36;;;;;;;15.80;9.18;;;20.00;62.90;;;;;;4994120;28;20376;-79
2021/07/07 01:00:08;;;;;;;15.67;8.70;;;20.00;63.20;;;;;;5000465;28;20057;-77
2021/07/07 01:02:38;;;;;;;18.20;9.18;;;20.00;63.50;;;;;;4993395;28;20034;-78
2021/07/07 01:05:07;;;;;;;19.90;9.25;;;20.00;63.50;;;;;;4993188;28;20502;-78
2021/07/07 01:07:33;;;;;;;16.75;8.95;;;20.00;62.70;;;;;;4992730;28;20031;-79
2021/07/07 01:09:59;;;;;;;16.38;8.80;;;20.00;62.70;;;;;;4993154;28;20022;-77
2021/07/07 01:12:26;;;;;;;13.63;7.68;;;20.00;61.60;;;;;;4991418;28;20050;-77
2021/07/07 01:14:55;;;;;;;18.88;8.65;;;20.00;60.30;;;;;;4992726;28;20034;-77
2021/07/07 01:17:23;;;;;;;16.40;8.15;;;20.10;59.70;;;;;;4993085;28;20387;-77
2021/07/07 01:19:51;;;;;;;14.30;8.65;;;20.10;60.60;;;;;;4992742;28;20030;-76
2021/07/07 01:22:17;;;;;;;18.13;9.82;;;20.20;61.80;;;;;;4992395;28;20030;-78
2021/07/07 01:24:43;;;;;;;14.98;8.80;;;20.20;62.00;;;;;;4991754;28;20515;-78
2021/07/07 01:27:09;;;;;;;12.85;8.68;;;20.10;61.70;;;;;;4992476;28;20031;-77
2021/07/07 01:29:35;;;;;;;13.43;8.13;;;20.20;61.60;;;;;;4992816;28;20023;-78
2021/07/07 01:32:01;;;;;;;12.30;8.00;;;20.20;62.00;;;;;;4992692;28;20145;-80
2021/07/07 01:34:28;;;;;;;16.77;8.52;;;20.20;62.00;;;;;;4992462;28;20369;-79
2021/07/07 01:36:54;;;;;;;12.68;7.93;;;20.20;62.20;;;;;;4992957;28;20375;-78
2021/07/07 01:39:20;;;;;;;16.85;8.68;;;20.30;61.70;;;;;;4992515;28;20034;-79
2021/07/07 01:41:46;;;;;;;15.05;7.47;;;20.30;61.40;;;;;;4992483;28;20037;-78
2021/07/07 01:44:12;;;;;;;19.77;7.80;;;20.40;59.50;;;;;;4992552;28;20030;-79
2021/07/07 01:46:38;;;;;;;14.65;7.25;;;20.40;58.80;;;;;;4992415;28;20114;-79
2021/07/07 01:49:04;;;;;;;10.23;7.10;;;20.50;58.30;;;;;;4992874;28;20447;-78
2021/07/07 01:51:30;;;;;;;10.93;6.73;;;20.60;58.20;;;;;;4991132;28;20027;-78
2021/07/07 01:53:56;;;;;;;17.00;8.50;;;20.70;58.00;;;;;;4992480;28;20089;-78
2021/07/07 01:56:22;;;;;;;13.18;7.95;;;20.80;58.40;;;;;;4992353;28;20022;-79
2021/07/07 01:58:48;;;;;;;13.05;6.90;;;20.70;58.60;;;;;;4997330;28;20388;-80
2021/07/07 02:01:14;;;;;;;14.20;7.28;;;20.80;58.40;;;;;;5004806;28;20021;-79
2021/07/07 02:03:40;;;;;;;20.52;8.48;;;20.90;58.90;;;;;;4998295;28;20073;-79
2021/07/07 02:06:05;;;;;;;17.10;8.82;;;20.90;59.00;;;;;;5003918;28;20387;-79
2021/07/07 02:08:31;;;;;;;12.98;8.48;;;20.90;57.90;;;;;;4999968;28;20462;-80
2021/07/07 02:10:57;;;;;;;14.27;7.85;;;21.10;57.90;;;;;;4996078;28;20080;-78
2021/07/07 02:13:23;;;;;;;14.98;8.90;;;21.10;57.80;;;;;;4995536;28;20522;-77
2021/07/07 02:15:49;;;;;;;16.67;7.97;;;21.10;57.80;;;;;;5007674;28;20109;-78
2021/07/07 02:18:15;;;;;;;16.63;8.05;;;21.20;57.50;;;;;;4995863;28;20054;-78
2021/07/07 02:20:46;;;;;;;11.13;8.32;;;21.30;57.00;;;;;;4994364;28;20022;-77
2021/07/07 02:23:13;;;;;;;9.88;7.70;;;21.30;56.20;;;;;;4995757;28;20061;-78
2021/07/07 02:25:42;;;;;;;18.15;8.02;;;21.40;56.50;;;;;;4995657;28;20071;-79
2021/07/07 02:28:08;;;;;;;14.73;7.10;;;21.40;56.20;;;;;;4996119;28;20035;-78
2021/07/07 02:30:36;;;;;;;9.80;7.55;;;21.40;56.20;;;;;;4994735;28;20026;-77
2021/07/07 02:33:04;;;;;;;12.55;7.93;;;21.50;56.50;;;;;;5007983;28;20404;-78
2021/07/07 02:35:32;;;;;;;12.40;8.52;;;21.50;56.40;;;;;;4995622;28;20022;-77
2021/07/07 02:37:59;;;;;;;10.43;7.97;;;21.50;55.50;;;;;;4995361;28;20015;-78
2021/07/07 02:40:31;;;;;;;13.77;8.35;;;21.50;56.00;;;;;;4995431;28;20046;-77
2021/07/07 02:42:57;;;;;;;15.02;9.30;;;21.60;55.90;;;;;;4995396;28;20026;-77
2021/07/07 02:45:24;;;;;;;12.73;8.25;;;21.70;56.00;;;;;;4995441;28;20014;-78
2021/07/07 02:47:50;;;;;;;15.20;8.23;;;21.70;55.70;;;;;;4995350;28;20031;-78
2021/07/07 02:50:18;;;;;;;16.13;8.10;;;21.70;55.10;;;;;;4995475;28;20049;-77
2021/07/07 02:52:45;;;;;;;19.65;8.25;;;21.70;55.10;;;;;;4995558;28;20041;-77
2021/07/07 02:55:14;;;;;;;18.55;8.02;;;21.70;54.90;;;;;;4993371;28;20022;-77
2021/07/07 03:00:28;;;;;;;13.57;7.60;;;21.90;54.80;;;;;;4983358;28;20629;-78
2021/07/07 03:02:55;;;;;;;11.90;8.27;;;22.00;54.40;;;;;;4994569;28;20030;-77
2021/07/07 03:05:20;;;;;;;14.53;7.93;;;22.10;54.10;;;;;;4994829;28;20014;-77
2021/07/07 03:07:46;;;;;;;15.55;7.90;;;22.10;54.40;;;;;;4995109;28;20114;-77
2021/07/07 03:10:13;;;;;;;16.65;8.98;;;22.20;54.40;;;;;;4994693;28;20111;-79
2021/07/07 03:12:38;;;;;;;9.52;6.70;;;22.30;54.20;;;;;;4993485;28;20108;-78
2021/07/07 03:15:05;;;;;;;11.80;7.13;;;22.50;54.10;;;;;;4994628;28;20030;-78
2021/07/07 03:17:31;;;;;;;14.50;6.93;;;22.70;53.30;;;;;;4994722;28;20539;-78
2021/07/07 03:19:57;;;;;;;16.98;7.10;;;22.70;52.70;;;;;;4994324;28;20065;-77
2021/07/07 03:22:23;;;;;;;11.35;6.70;;;22.80;52.10;;;;;;4994459;28;20027;-77
2021/07/07 03:24:48;;;;;;;15.23;7.43;;;22.80;52.30;;;;;;4994471;28;20369;-78
2021/07/07 03:27:14;;;;;;;17.15;7.60;;;22.80;52.40;;;;;;4994526;28;20030;-78
2021/07/07 03:29:40;;;;;;;12.73;6.55;;;22.80;52.60;;;;;;4994425;28;20025;-78
2021/07/07 03:32:06;;;;;;;14.80;7.20;;;22.70;52.90;;;;;;4996153;28;20499;-78
2021/07/07 03:34:32;;;;;;;9.60;6.82;;;22.80;52.60;;;;;;4995073;28;20022;-79
2021/07/07 03:36:58;;;;;;;12.70;6.78;;;22.80;52.60;;;;;;4994291;28;20110;-79
2021/07/07 03:39:24;;;;;;;14.02;7.88;;;22.90;52.30;;;;;;4994225;28;20026;-78
2021/07/07 03:41:50;;;;;;;13.88;7.13;;;23.10;53.00;;;;;;4994206;28;20036;-79
2021/07/07 03:44:15;;;;;;;11.95;6.78;;;23.20;52.80;;;;;;4994032;28;20033;-78
2021/07/07 03:46:41;;;;;;;16.17;7.97;;;23.20;51.60;;;;;;4994097;28;20085;-78
2021/07/07 03:49:07;;;;;;;14.77;6.57;;;23.20;52.30;;;;;;4994075;28;20029;-79
2021/07/07 03:51:33;;;;;;;12.05;7.18;;;23.20;52.30;;;;;;4992794;28;20022;-78
2021/07/07 03:54:01;;;;;;;11.32;6.80;;;23.20;51.80;;;;;;4982435;28;20126;-78
2021/07/07 03:56:26;;;;;;;13.75;6.53;;;23.30;51.80;;;;;;4991488;28;20029;-78
2021/07/07 03:58:52;;;;;;;19.60;7.55;;;23.30;52.10;;;;;;4993748;28;20018;-78
2021/07/07 04:01:18;;;;;;;13.98;7.18;;;23.40;51.40;;;;;;4993688;28;20459;-78
2021/07/07 04:03:44;;;;;;;13.38;6.90;;;23.40;51.70;;;;;;4993787;28;20026;-78
2021/07/07 04:06:09;;;;;;;15.57;7.45;;;23.50;51.80;;;;;;4993876;28;20026;-79
2021/07/07 04:08:35;;;;;;;16.92;7.10;;;23.50;51.20;;;;;;4993620;28;20519;-79
2021/07/07 04:11:01;;;;;;;16.80;7.57;;;23.50;50.80;;;;;;4993718;28;20039;-79
2021/07/07 04:13:28;;;;;;;18.85;6.70;;;23.60;51.20;;;;;;4993300;28;20115;-79
2021/07/07 04:15:55;;;;;;;11.05;6.50;;;23.70;51.00;;;;;;4993917;28;20425;-77
2021/07/07 04:18:21;;;;;;;17.08;7.05;;;23.80;51.30;;;;;;4993542;28;20037;-78
2021/07/07 04:20:47;;;;;;;11.55;6.68;;;23.80;51.60;;;;;;4993613;28;20033;-79
2021/07/07 04:23:14;;;;;;;17.23;6.53;;;23.90;50.90;;;;;;4996282;28;20023;-80
2021/07/07 04:25:40;;;;;;;28.05;8.27;;;24.00;50.80;;;;;;4985729;28;20026;-82
2021/07/07 04:28:06;;;;;;;16.23;6.45;;;24.10;50.70;;;;;;4992132;28;20038;-79
2021/07/07 04:30:33;;;;;;;15.60;6.93;;;24.10;50.00;;;;;;4984897;28;20129;-81
2021/07/07 04:32:59;;;;;;;15.33;7.70;;;24.10;48.80;;;;;;4993105;28;20345;-79
2021/07/07 04:35:25;;;;;;;16.33;6.72;;;24.10;49.10;;;;;;4993589;28;20030;-78
2021/07/07 04:37:51;;;;;;;9.57;6.85;;;24.10;49.40;;;;;;4993594;28;20101;-80
2021/07/07 04:40:19;;;;;;;15.45;7.65;;;24.20;49.40;;;;;;4993698;28;20391;-78
2021/07/07 04:42:45;;;;;;;11.48;6.47;;;24.20;49.10;;;;;;4991788;28;20018;-78
2021/07/07 04:45:12;;;;;;;11.73;6.15;;;24.20;49.20;;;;;;4992435;28;20030;-79
2021/07/07 04:47:38;;;;;;;14.90;5.65;;;24.30;49.00;;;;;;4993974;28;20018;-79
2021/07/07 04:50:07;;;;;;;10.37;5.87;;;24.30;49.00;;;;;;4993273;28;20037;-80
2021/07/07 04:52:33;;;;;;;13.93;6.47;;;24.30;48.20;;;;;;4983306;28;20295;-81
2021/07/07 04:54:58;;;;;;;10.35;5.93;;;24.30;48.40;;;;;;4992798;28;20019;-78
2021/07/07 04:57:24;;;;;;;11.02;6.45;;;24.30;48.30;;;;;;4993537;28;20045;-79
2021/07/07 04:59:50;;;;;;;13.10;6.70;;;24.30;48.80;;;;;;4991376;28;20097;-79
2021/07/07 05:02:16;;;;;;;8.38;5.72;;;24.30;48.60;;;;;;4993484;28;20037;-80
2021/07/07 05:04:43;;;;;;;14.15;6.25;;;24.50;48.30;;;;;;4993963;28;20391;-80
2021/07/07 05:07:09;;;;;;;12.48;5.93;;;24.60;48.00;;;;;;4994105;28;20026;-81
2021/07/07 05:09:36;;;;;;;9.48;5.72;;;24.60;47.20;;;;;;4995056;28;20029;-81
2021/07/07 05:12:02;;;;;;;17.95;5.90;;;24.70;47.30;;;;;;4994343;28;20019;-81
2021/07/07 05:14:28;;;;;;;9.88;5.97;;;;;;;;;;5002771;28;20038;-79
2021/07/07 05:16:54;;;;;;;19.70;6.07;;;25.10;47.40;;;;;;5000076;28;20019;-81
2021/07/07 05:19:20;;;;;;;11.23;5.10;;;26.90;44.40;;;;;;4995386;28;20404;-81
2021/07/07 05:21:46;;;;;;;11.15;6.15;;;28.10;42.50;;;;;;4993558;28;20031;-79
2021/07/07 05:24:12;;;;;;;11.70;5.18;;;29.20;40.90;;;;;;4993270;28;20022;-82
2021/07/07 05:26:38;;;;;;;9.27;5.35;;;29.90;39.50;;;;;;4992881;28;20153;-81
2021/07/07 05:29:03;;;;;;;15.43;6.45;;;30.90;38.30;;;;;;4992083;28;20083;-81
2021/07/07 05:31:29;;;;;;;9.63;5.38;;;31.90;37.40;;;;;;4993078;28;20018;-81
2021/07/07 05:33:55;;;;;;;15.00;5.33;;;32.80;35.90;;;;;;4992836;28;20035;-82
2021/07/07 05:36:21;;;;;;;22.90;7.67;;;33.50;34.90;;;;;;4994727;28;20026;-81
2021/07/07 05:38:47;;;;;;;10.03;5.90;;;34.10;33.90;;;;;;4996779;28;20121;-81
2021/07/07 05:41:12;;;;;;;15.60;5.97;;;34.70;33.30;;;;;;4996321;28;20018;-82
2021/07/07 05:43:38;;;;;;;13.03;5.83;;;35.20;32.30;;;;;;4996371;28;20106;-81
2021/07/07 05:46:05;;;;;;;11.03;5.33;;;35.60;32.00;;;;;;4996084;28;20034;-80
2021/07/07 05:48:31;;;;;;;9.45;5.10;;;;;;;;;;4995876;28;20443;-80
2021/07/07 05:50:57;;;;;;;11.45;4.72;;;36.00;31.40;;;;;;4995208;28;20034;-82
2021/07/07 05:53:23;;;;;;;12.87;5.33;;;37.00;30.50;;;;;;4996473;28;20035;-82
2021/07/07 05:55:50;;;;;;;11.60;5.00;;;36.80;31.20;;;;;;4996189;28;20327;-80
2021/07/07 05:58:15;;;;;;;18.08;6.13;;;36.80;30.60;;;;;;4996128;28;20026;-81
2021/07/07 06:00:41;;;;;;;6.67;5.07;;;37.00;29.60;;;;;;4996105;28;20021;-80
2021/07/07 06:03:07;;;;;;;11.63;5.17;;;37.20;29.50;;;;;;4996235;28;20532;-79
2021/07/07 06:05:33;;;;;;;13.83;4.97;;;37.60;29.60;;;;;;4996221;28;20026;-80
2021/07/07 06:07:59;;;;;;;11.45;5.40;;;37.40;28.90;;;;;;4995762;28;20030;-78
2021/07/07 06:10:26;;;;;;;11.65;4.90;;;37.20;29.20;;;;;;4995927;28;20019;-79
2021/07/07 06:12:53;;;;;;;22.20;6.32;;;37.90;29.30;;;;;;4994938;28;20054;-79
2021/07/07 06:15:20;;;;;;;16.77;5.32;;;38.90;29.10;;;;;;4995197;28;20023;-79
2021/07/07 06:17:46;;;;;;;3.95;3.13;;;40.10;28.20;;;;;;4996374;28;20471;-80
2021/07/07 06:20:13;;;;;;;5.50;2.90;;;40.50;26.80;;;;;;4995905;28;20022;-80
2021/07/07 06:22:41;;;;;;;13.90;3.90;;;40.10;26.50;;;;;;4995794;28;20034;-81
2021/07/07 06:25:09;;;;;;;7.47;3.95;;;40.00;27.00;;;;;;4989056;28;20435;-80
2021/07/07 06:27:37;;;;;;;10.50;2.65;;;40.50;27.10;;;;;;4995655;28;20026;-80
2021/07/07 06:30:08;;;;;;;6.10;2.95;;;40.90;26.40;;;;;;4995707;28;20015;-81
2021/07/07 06:32:33;;;;;;;9.60;2.83;;;42.00;26.30;;;;;;4995483;28;20034;-80
2021/07/07 06:35:02;;;;;;;9.38;2.63;;;42.40;25.20;;;;;;4995566;28;20042;-79
2021/07/07 06:37:29;;;;;;;7.43;2.30;;;42.70;25.60;;;;;;4995484;28;20071;-79
2021/07/07 06:39:55;;;;;;;4.30;2.30;;;43.10;24.50;;;;;;4995755;28;20421;-79
2021/07/07 06:42:20;;;;;;;;;;;43.70;24.40;;;;;;4995368;28;20068;-80
2021/07/07 06:44:46;;;;;;;5.55;2.15;;;44.40;25.20;;;;;;4991175;28;20299;-80
2021/07/07 06:47:12;;;;;;;;;;;43.90;24.40;;;;;;4995343;28;20022;-82
2021/07/07 06:49:59;;;;;;;5.97;2.67;;;44.90;25.80;;;;;;4986765;28;19917;-78
2021/07/07 06:52:26;;;;;;;6.55;2.60;;;;;;;;;;4995340;28;20386;-81
2021/07/07 06:54:52;;;;;;;9.90;2.63;;;46.20;24.00;;;;;;4995360;28;20018;-81
2021/07/07 06:57:18;;;;;;;5.43;2.08;;;46.40;23.10;;;;;;4995243;28;20184;-82
2021/07/07 06:59:44;;;;;;;5.55;3.63;;;46.20;22.90;;;;;;4994586;28;20101;-82
2021/07/07 07:02:10;;;;;;;7.28;2.35;;;46.50;23.30;;;;;;4994789;28;20105;-81
2021/07/07 07:04:36;;;;;;;6.45;2.50;;;46.50;23.00;;;;;;4994471;28;20026;-79
2021/07/07 07:07:02;;;;;;;6.68;2.50;;;46.50;23.20;;;;;;4994439;28;20038;-80
2021/07/07 07:09:31;;;;;;;5.88;2.35;;;46.70;23.00;;;;;;4995465;28;20570;-80
2021/07/07 07:11:57;;;;;;;3.55;1.80;;;46.40;22.70;;;;;;4994341;28;20488;-80
2021/07/07 07:14:23;;;;;;;6.53;2.35;;;46.40;22.60;;;;;;4995133;28;20080;-81
2021/07/07 07:16:49;;;;;;;8.20;2.95;;;46.60;22.80;;;;;;4994581;28;20030;-81
2021/07/07 07:19:15;;;;;;;9.57;5.20;;;46.80;22.70;;;;;;4994743;28;20022;-82
2021/07/07 07:21:41;;;;;;;3.50;2.40;;;46.70;22.60;;;;;;4994564;28;20034;-83
2021/07/07 07:24:08;;;;;;;6.63;1.75;;;47.30;22.70;;;;;;4992628;28;20042;-80
2021/07/07 07:26:34;;;;;;;6.50;2.13;;;47.70;22.40;;;;;;4990554;28;20073;-82
2021/07/07 07:29:01;;;;;;;8.75;2.20;;;46.60;22.50;;;;;;4994483;28;20027;-82
2021/07/07 07:31:27;;;;;;;6.82;2.70;;;45.90;22.80;;;;;;4993435;28;20449;-83
2021/07/07 07:33:53;;;;;;;7.97;3.28;;;45.20;22.80;;;;;;4994483;28;20026;-83
2021/07/07 07:36:20;;;;;;;8.25;2.40;;;43.50;23.40;;;;;;4993245;28;20022;-82
2021/07/07 07:38:48;;;;;;;9.07;2.10;;;44.50;23.60;;;;;;4995107;28;20027;-82
2021/07/07 07:41:15;;;;;;;3.55;2.30;;;44.00;23.40;;;;;;4993206;28;20109;-80
2021/07/07 07:43:46;;;;;;;3.03;2.20;;;44.20;23.60;;;;;;4994562;28;20099;-81
2021/07/07 07:46:11;;;;;;;6.82;3.03;;;45.10;23.50;;;;;;4994016;28;20018;-81
2021/07/07 07:48:37;;;;;;;5.43;2.20;;;44.30;23.60;;;;;;4993747;28;20034;-80
2021/07/07 07:51:03;;;;;;;3.92;1.95;;;44.80;23.50;;;;;;4995703;28;20029;-79
2021/07/07 07:53:29;;;;;;;2.95;1.65;;;43.90;23.40;;;;;;4989134;28;20523;-80
2021/07/07 07:55:55;;;;;;;6.32;2.47;;;44.40;23.70;;;;;;4987631;28;20022;-79
2021/07/07 07:58:21;;;;;;;6.07;2.13;;;45.50;23.50;;;;;;4983496;28;20031;-80
2021/07/07 08:00:48;;;;;;;2.83;1.88;;;46.60;23.10;;;;;;5001113;28;20023;-79
2021/07/07 08:03:15;;;;;;;6.32;3.90;;;47.40;22.60;;;;;;4993697;28;20113;-79
2021/07/07 08:05:42;;;;;;;4.72;2.80;;;48.00;22.60;;;;;;4993753;28;20447;-80
2021/07/07 08:08:09;;;;;;;8.20;3.17;;;48.60;22.30;;;;;;4993300;28;20026;-80
2021/07/07 08:10:35;;;;;;;5.63;1.90;;;49.20;22.30;;;;;;4993684;28;20072;-77
2021/07/07 08:13:01;;;;;;;4.15;2.17;;;49.70;22.10;;;;;;4993239;28;20050;-81
2021/07/07 08:15:28;;;;;;;4.85;1.90;;;49.20;21.80;;;;;;4983539;28;20445;-83
2021/07/07 08:17:56;;;;;;;5.25;2.33;;;48.10;22.10;;;;;;4993585;28;20057;-81
2021/07/07 08:20:22;;;;;;;7.78;3.53;;;47.40;22.30;;;;;;4993453;28;20069;-81
2021/07/07 08:22:49;;;;;;;5.00;2.30;;;47.20;22.20;;;;;;4993381;28;20045;-79
2021/07/07 08:25:16;;;;;;;4.85;2.10;;;47.00;22.20;;;;;;4993349;28;20037;-80
2021/07/07 08:27:43;;;;;;;8.23;2.35;;;46.90;22.40;;;;;;4992560;28;20431;-79
2021/07/07 08:30:10;;;;;;;3.78;2.25;;;47.50;22.50;;;;;;4992236;28;20121;-82
2021/07/07 08:32:37;;;;;;;5.38;2.42;;;46.50;22.20;;;;;;4991813;28;20032;-78
2021/07/07 08:35:04;;;;;;;5.63;2.30;;;45.40;22.60;;;;;;4993267;28;20022;-78
2021/07/07 08:37:30;;;;;;;3.72;2.03;;;44.60;22.90;;;;;;4993481;28;20035;-77
2021/07/07 08:39:56;;;;;;;10.00;2.63;;;44.90;23.10;;;;;;4993697;28;20019;-80
2021/07/07 08:42:22;;;;;;;7.82;2.05;;;44.70;23.00;;;;;;4993015;28;20105;-80
2021/07/07 08:44:48;;;;;;;3.08;1.73;;;45.10;23.20;;;;;;4992519;28;20073;-80
2021/07/07 08:47:14;;;;;;;8.25;2.70;;;46.30;23.10;;;;;;4993051;28;20025;-79
2021/07/07 08:49:40;;;;;;;4.20;2.28;;;47.20;23.00;;;;;;4992915;28;20137;-78
2021/07/07 08:52:06;;;;;;;6.45;2.22;;;47.70;22.80;;;;;;4991689;28;20187;-79
2021/07/07 08:54:33;;;;;;;5.28;2.70;;;47.60;22.20;;;;;;4992759;28;20022;-79
2021/07/07 08:57:08;;;;;;;3.90;1.92;;;46.80;22.60;;;;;;4991784;28;20365;-81
2021/07/07 08:59:35;;;;;;;6.07;2.25;;;47.20;22.70;;;;;;4993211;28;20022;-82
2021/07/07 09:02:03;;;;;;;5.07;2.55;;;47.80;22.60;;;;;;4993705;28;20027;-81
2021/07/07 09:04:48;;;;;;;5.65;2.63;;;47.20;22.50;;;;;;4993638;28;20021;-80
2021/07/07 09:07:24;;;;;;;7.55;2.20;;;46.80;22.50;;;;;;4986440;28;20029;-84
2021/07/07 09:09:52;;;;;;;7.82;2.30;;;45.50;23.00;;;;;;4994545;28;20480;-84
2021/07/07 09:12:22;;;;;;;6.60;2.22;;;45.90;22.90;;;;;;4992525;28;20532;-82
2021/07/07 09:14:50;;;;;;;5.63;2.03;;;45.20;22.70;;;;;;4992317;28;20130;-82
2021/07/07 09:17:20;;;;;;;4.63;1.85;;;43.60;23.00;;;;;;4994236;28;20021;-80
2021/07/07 09:19:47;;;;;;;5.03;2.10;;;43.50;23.40;;;;;;4995770;28;20022;-83
2021/07/07 09:22:14;;;;;;;2.47;2.00;;;44.40;23.40;;;;;;4998958;28;20151;-82
2021/07/07 09:24:43;;;;;;;3.28;2.15;;;45.30;23.00;;;;;;4995013;28;20030;-82
2021/07/07 09:27:17;;;;;;;4.90;2.45;;;45.40;22.80;;;;;;4993666;28;20028;-81
2021/07/07 09:29:51;;;;;;;6.22;2.85;;;45.50;22.90;;;;;;4992285;28;20468;-83
2021/07/07 09:32:28;;;;;;;5.07;2.22;;;45.80;23.10;;;;;;4993135;28;20494;-81
2021/07/07 09:35:00;;;;;;;8.43;3.00;;;45.60;22.80;;;;;;4993172;28;20325;-83
2021/07/07 09:37:35;;;;;;;4.57;2.00;;;45.60;23.10;;;;;;4992763;28;20057;-84
2021/07/07 09:40:01;;;;;;;5.15;2.40;;;46.10;23.10;;;;;;4988054;28;20169;-81
2021/07/07 09:42:34;;;;;;;6.25;2.33;;;46.70;22.80;;;;;;4984495;28;20067;-83
2021/07/07 09:45:01;;;;;;;4.38;2.00;;;46.30;22.70;;;;;;4988134;28;20026;-82
2021/07/07 09:47:28;;;;;;;5.85;2.35;;;46.00;23.00;;;;;;4992182;28;20018;-80
2021/07/07 09:49:55;;;;;;;6.53;2.40;;;45.50;23.10;;;;;;4992071;28;20106;-82
2021/07/07 09:52:26;;;;;;;4.57;2.13;;;45.70;23.10;;;;;;4992335;28;20478;-80
2021/07/07 09:54:52;;;;;;;4.57;2.25;;;45.70;23.00;;;;;;4992319;28;20030;-81
2021/07/07 09:57:19;;;;;;;4.72;2.35;;;45.60;23.00;;;;;;4992266;28;20391;-81
2021/07/07 09:59:46;;;;;;;5.65;2.50;;;46.00;23.00;;;;;;4992044;28;20072;-81
2021/07/07 10:02:12;;;;;;;5.00;2.72;;;46.00;23.00;;;;;;4993168;28;20015;-79
2021/07/07 10:04:42;;;;;;;4.90;2.47;;;46.50;22.90;;;;;;4992917;28;20029;-79
2021/07/07 10:07:08;;;;;;;6.97;3.00;;;46.20;22.80;;;;;;4992284;28;20076;-80
2021/07/07 10:09:44;;;;;;;3.78;2.17;;;45.90;22.90;;;;;;4991694;28;20023;-81
2021/07/07 10:12:11;;;;;;;1.92;1.80;;;45.20;23.20;;;;;;4992401;28;20380;-82
2021/07/07 10:14:37;;;;;;;4.38;2.45;;;42.40;23.50;;;;;;4992038;28;20027;-79
2021/07/07 10:17:04;;;;;;;5.47;2.70;;;40.10;25.00;;;;;;4991553;28;20025;-83
2021/07/07 10:19:30;;;;;;;6.28;2.63;;;39.80;25.70;;;;;;4991690;28;20496;-78
2021/07/07 10:21:56;;;;;;;3.85;2.38;;;40.40;25.50;;;;;;4992602;28;20065;-79
2021/07/07 10:24:29;;;;;;;6.97;2.63;;;41.10;24.70;;;;;;4995656;28;20030;-79
2021/07/07 10:27:07;;;;;;;5.72;2.80;;;41.80;24.20;;;;;;4995602;28;20118;-79
2021/07/07 10:29:35;;;;;;;5.15;2.00;;;42.50;24.10;;;;;;4994458;28;20027;-80
2021/07/07 10:32:07;;;;;;;6.05;2.88;;;42.90;23.80;;;;;;4995705;28;20054;-80
2021/07/07 10:34:34;;;;;;;3.30;2.35;;;42.80;24.30;;;;;;4995916;28;20061;-78
2021/07/07 10:37:01;;;;;;;4.82;2.63;;;41.20;23.90;;;;;;4997099;28;20027;-78
2021/07/07 10:39:28;;;;;;;3.92;2.53;;;38.00;25.80;;;;;;4995171;28;20066;-78
2021/07/07 10:42:02;;;;;;;7.00;3.75;;;34.50;27.90;;;;;;4999042;28;20458;-82
2021/07/07 10:44:28;;;;;;;5.25;3.15;;;34.40;28.40;;;;;;5002526;28;20527;-80
2021/07/07 10:47:02;;;;;;;4.37;3.00;;;33.40;29.10;;;;;;5002096;28;20042;-78
2021/07/07 10:49:42;;;;;;;5.10;3.03;;;32.50;30.00;;;;;;4994543;28;20072;-82
2021/07/07 10:52:10;;;;;;;7.18;3.78;;;32.00;30.50;;;;;;4996668;28;20031;-79
2021/07/07 10:54:42;;;;;;;8.35;3.30;;;31.60;31.50;;;;;;4995132;28;20030;-78
2021/07/07 10:57:10;;;;;;;3.75;3.28;;;31.20;32.20;;;;;;4995621;28;20527;-79
2021/07/07 10:59:46;;;;;;;4.18;3.00;;;31.10;32.60;;;;;;4995520;28;20033;-79
2021/07/07 11:02:15;;;;;;;6.97;3.08;;;30.90;32.20;;;;;;4984144;28;20049;-80
2021/07/07 11:04:48;;;;;;;5.45;2.97;;;30.70;32.20;;;;;;4995511;28;20042;-79
2021/07/07 11:07:32;;;;;;;7.50;3.42;;;30.70;32.90;;;;;;4994193;28;20049;-78
2021/07/07 11:10:04;;;;;;;4.68;3.00;;;30.60;33.00;;;;;;4997286;28;20038;-79
2021/07/07 11:12:36;;;;;;;5.95;3.55;;;30.60;33.10;;;;;;4992953;28;20038;-80
2021/07/07 11:15:08;;;;;;;7.20;3.30;;;30.00;33.60;;;;;;4995211;28;20080;-78
2021/07/07 11:17:38;;;;;;;3.90;2.83;;;29.60;35.00;;;;;;4985027;28;20034;-80
2021/07/07 11:20:05;;;;;;;8.55;3.78;;;29.60;34.80;;;;;;4993781;28;20531;-78
2021/07/07 11:22:31;;;;;;;8.43;5.57;;;29.60;35.50;;;;;;4998185;28;20057;-78
2021/07/07 11:24:58;;;;;;;7.95;3.28;;;29.70;35.00;;;;;;4994606;28;20134;-80
2021/07/07 11:27:24;;;;;;;7.20;3.80;;;29.80;35.10;;;;;;4999976;28;20073;-79
2021/07/07 11:29:50;;;;;;;9.50;3.28;;;29.90;34.90;;;;;;4995423;28;20061;-78
2021/07/07 11:32:32;;;;;;;8.18;4.75;;;29.90;34.90;;;;;;4993824;28;20030;-78
2021/07/07 11:35:00;;;;;;;9.43;4.15;;;29.90;35.40;;;;;;4990225;28;20022;-82
2021/07/07 11:37:29;;;;;;;4.22;3.58;;;29.90;35.60;;;;;;4996985;28;20022;-78
2021/07/07 11:40:01;;;;;;;16.50;8.68;;;29.90;35.00;;;;;;4994535;28;20050;-80
2021/07/07 11:42:27;;;;;;;9.93;3.97;;;29.50;35.90;;;;;;4993492;28;20145;-78
2021/07/07 11:44:53;;;;;;;6.53;3.88;;;29.50;35.60;;;;;;4992073;28;20169;-80
2021/07/07 11:47:33;;;;;;;10.68;4.50;;;29.50;35.70;;;;;;4994422;28;20537;-79
2021/07/07 11:50:07;;;;;;;8.50;3.65;;;29.50;35.90;;;;;;4983540;28;20034;-79
2021/07/07 11:52:33;;;;;;;6.60;3.75;;;29.20;35.50;;;;;;4989228;28;20034;-78
2021/07/07 11:55:00;;;;;;;5.32;3.25;;;29.10;36.70;;;;;;4993363;28;20022;-80
2021/07/07 11:57:27;;;;;;;6.15;3.92;;;29.20;36.70;;;;;;4994278;28;20029;-79
2021/07/07 11:59:52;;;;;;;;;;;29.20;36.20;;;;;;4994457;28;20022;-80
2021/07/07 12:02:19;;;;;;;5.30;3.67;;;29.00;35.90;;;;;;4994202;28;19944;-80
2021/07/07 12:04:46;;;;;;;9.43;3.83;;;29.10;36.10;;;;;;4994116;28;20045;-80
2021/07/07 12:07:13;;;;;;;8.80;4.82;;;29.10;36.30;;;;;;4993823;28;20027;-80
2021/07/07 12:09:39;;;;;;;6.32;4.00;;;29.00;36.40;;;;;;4993636;28;20062;-81
2021/07/07 12:12:09;;;;;;;5.90;3.75;;;29.10;36.50;;;;;;4979488;28;20428;-79
2021/07/07 12:14:37;;;;;;;4.45;3.75;;;29.00;35.90;;;;;;4994028;28;20491;-79
2021/07/07 12:17:06;;;;;;;7.63;3.78;;;28.70;36.30;;;;;;4987074;28;20447;-78
2021/07/07 12:19:33;;;;;;;6.82;3.85;;;28.60;36.80;;;;;;4993518;28;20065;-79
2021/07/07 12:22:07;;;;;;;8.95;3.95;;;28.60;36.60;;;;;;4993098;28;20022;-78
2021/07/07 12:24:35;;;;;;;5.70;4.18;;;28.60;37.10;;;;;;4994429;28;20042;-79
2021/07/07 12:27:15;;;;;;;5.85;4.05;;;28.80;36.80;;;;;;4994140;28;20019;-79
2021/07/07 12:29:43;;;;;;;8.25;3.83;;;28.80;36.60;;;;;;4993668;28;20026;-79
2021/07/07 12:32:26;;;;;;;6.63;3.70;;;28.70;36.80;;;;;;4990750;28;20042;-78
2021/07/07 12:34:56;;;;;;;5.15;4.05;;;28.70;36.80;;;;;;4981363;28;20062;-79
2021/07/07 12:37:27;;;;;;;8.25;3.75;;;28.80;36.70;;;;;;4993061;28;20380;-80
2021/07/07 12:39:58;;;;;;;5.90;3.58;;;28.80;37.20;;;;;;4982382;28;20467;-82
2021/07/07 12:42:31;;;;;;;8.23;3.60;;;28.80;37.10;;;;;;5007490;28;20026;-81
2021/07/07 12:45:12;;;;;;;5.30;3.58;;;28.90;36.70;;;;;;4986280;28;20060;-84
2021/07/07 12:47:39;;;;;;;9.10;4.25;;;29.00;37.00;;;;;;4990547;28;20027;-81